Portada
METAR-TAF:

METAR-TAF

Aeroports :

Goldsboro, Carolina del Nord, Estats Units d'Amèrica

latitud: 35-27-38N, longitud: 077-57-54W, altitud: 40 m

Observació

L'informe es va fer fa 11 minuts, a les 23:05 UTC
Vent 7 kt del Sud
Temperatura 32°C
Humitat 46%
Pressió 1018 hPa
Visibilitat: 16.1 km
Cel clar

METAR: KGWW 252305Z AUTO 18007KT 10SM CLR 32/19 A3007 RMK AO2 T03150194

Hora: 19:16 (23:16 UTC)


TAF: manca

Observacions i pronòstics meteorològics de més de 4000 aeroports (METAR i TAF).

Les estacions disponibles són els punts grocs i vermells al mapa.

Posi el ratolí al punt desitjat per veure el nom de l'estació.

Feu clic per veure les observacions i els pronòstics meteorològics.

Per canviar el mapa: feu clic els botons verds amb una creu de color negre per apropar; al botó verd amb un guió per allunyar la imatge; o en les fletxes verdes per a mapes adjacents.


METAR-TAF: